createdAt,value
2023-01-05T00:02:01.497Z,22.77
2023-01-05T00:04:22.362Z,24.30
2023-01-05T00:06:42.839Z,19.35
2023-01-05T00:09:03.689Z,15.40
2023-01-05T00:11:43.320Z,18.50
2023-01-05T00:14:21.263Z,24.60
2023-01-05T00:16:59.993Z,20.10
2023-01-05T00:19:38.374Z,23.08
2023-01-05T00:22:17.006Z,16.02
2023-01-05T00:24:37.127Z,16.63
2023-01-05T00:26:56.749Z,24.38
2023-01-05T00:29:16.414Z,27.13
2023-01-05T00:31:36.444Z,19.73
2023-01-05T00:33:56.536Z,14.93
2023-01-05T00:36:16.158Z,25.45
2023-01-05T00:38:35.894Z,24.42
2023-01-05T00:40:55.991Z,28.77
2023-01-05T00:43:15.811Z,24.70
2023-01-05T00:45:35.987Z,30.65
2023-01-05T00:47:56.185Z,18.88
2023-01-05T00:50:17.616Z,15.18
2023-01-05T00:52:37.936Z,24.27
2023-01-05T00:54:57.974Z,27.02
2023-01-05T00:57:18.125Z,26.05
2023-01-05T00:59:38.198Z,20.83
2023-01-05T01:01:57.952Z,22.25
2023-01-05T01:04:19.019Z,14.68
2023-01-05T01:06:39.231Z,14.90
2023-01-05T01:08:59.118Z,17.33
2023-01-05T01:11:19.462Z,18.45
2023-01-05T01:13:39.270Z,21.50
2023-01-05T01:16:05.775Z,22.88
2023-01-05T01:18:25.669Z,15.00
2023-01-05T01:20:45.457Z,14.75
2023-01-05T01:23:05.271Z,13.95
2023-01-05T01:25:26.158Z,15.35
2023-01-05T01:27:46.130Z,16.20
2023-01-05T01:30:06.393Z,17.67
2023-01-05T01:32:26.383Z,21.65
2023-01-05T01:34:46.798Z,16.23
2023-01-05T01:37:06.747Z,13.80
2023-01-05T01:39:27.138Z,26.17
2023-01-05T01:41:47.131Z,17.85
2023-01-05T01:44:44.964Z,15.15
2023-01-05T01:47:04.914Z,15.90
2023-01-05T01:49:24.868Z,14.52
2023-01-05T01:51:47.618Z,13.77
2023-01-05T01:54:10.976Z,16.98
2023-01-05T01:56:44.956Z,25.30
2023-01-05T01:59:05.163Z,17.60
2023-01-05T02:01:24.974Z,12.32
2023-01-05T02:03:45.530Z,15.63
2023-01-05T02:06:05.699Z,16.13
2023-01-05T02:08:30.608Z,11.98
2023-01-05T02:11:15.610Z,15.75
2023-01-05T02:14:02.757Z,12.30
2023-01-05T02:16:47.576Z,11.63
2023-01-05T02:19:35.492Z,21.00
2023-01-05T02:22:04.279Z,17.40
2023-01-05T02:24:42.732Z,12.50
2023-01-05T02:27:58.957Z,11.32
2023-01-05T02:30:36.548Z,21.95
2023-01-05T02:33:26.613Z,12.77
2023-01-05T02:36:01.293Z,10.85
2023-01-05T02:38:37.831Z,16.77
2023-01-05T02:41:06.526Z,13.48
2023-01-05T02:43:28.174Z,19.13
2023-01-05T02:45:48.711Z,14.10
2023-01-05T02:48:09.476Z,11.95
2023-01-05T02:50:37.726Z,16.08
2023-01-05T02:53:04.505Z,17.88
2023-01-05T02:55:33.985Z,10.32
2023-01-05T02:58:00.317Z,10.38
2023-01-05T03:00:30.412Z,9.82
2023-01-05T03:02:55.291Z,11.15
2023-01-05T03:05:38.833Z,15.93
2023-01-05T03:10:45.099Z,10.57
2023-01-05T03:13:26.434Z,14.68
2023-01-05T03:15:47.327Z,20.27
2023-01-05T03:18:11.436Z,20.20
2023-01-05T03:20:33.797Z,17.55
2023-01-05T03:23:14.375Z,18.85
2023-01-05T03:25:55.482Z,20.15
2023-01-05T03:28:42.270Z,10.20
2023-01-05T03:31:41.741Z,12.93
2023-01-05T03:34:28.686Z,18.35
2023-01-05T03:37:02.060Z,12.15
2023-01-05T03:39:25.764Z,14.70
2023-01-05T03:41:46.987Z,15.68
2023-01-05T03:44:07.693Z,13.10
2023-01-05T03:46:27.711Z,19.00
2023-01-05T03:48:48.155Z,31.92
2023-01-05T03:51:08.137Z,16.60
2023-01-05T03:53:28.284Z,11.60
2023-01-05T03:55:50.896Z,13.38
2023-01-05T03:58:10.846Z,8.27
2023-01-05T04:00:30.937Z,16.15
2023-01-05T04:02:51.556Z,13.70
2023-01-05T04:05:11.676Z,35.10
2023-01-05T04:07:31.398Z,21.25
2023-01-05T04:09:51.493Z,20.88
2023-01-05T04:12:11.150Z,23.15
2023-01-05T04:14:30.841Z,17.88
2023-01-05T04:16:50.589Z,10.02
2023-01-05T04:19:10.881Z,21.17
2023-01-05T04:21:31.040Z,19.73
2023-01-05T04:23:50.903Z,15.07
2023-01-05T04:26:11.356Z,18.23
2023-01-05T04:28:31.293Z,12.35
2023-01-05T04:30:54.090Z,11.35
2023-01-05T04:33:14.156Z,14.00
2023-01-05T04:35:34.213Z,15.63
2023-01-05T04:37:53.858Z,10.98
2023-01-05T04:40:13.616Z,10.77
2023-01-05T04:42:33.361Z,14.52
2023-01-05T04:44:53.251Z,14.73
2023-01-05T04:47:13.071Z,19.58
2023-01-05T04:49:32.605Z,13.63
2023-01-05T04:51:52.091Z,11.43
2023-01-05T04:54:11.730Z,20.70
2023-01-05T04:56:31.372Z,9.50
2023-01-05T04:58:50.889Z,13.50
2023-01-05T05:01:10.584Z,13.57
2023-01-05T05:03:33.143Z,13.82
2023-01-05T05:05:53.484Z,10.57
2023-01-05T05:08:13.863Z,10.38
2023-01-05T05:10:33.991Z,11.23
2023-01-05T05:12:53.785Z,13.73
2023-01-05T05:15:13.852Z,11.70
2023-01-05T05:17:33.981Z,13.85
2023-01-05T05:19:54.013Z,9.32
2023-01-05T05:22:13.947Z,9.40
2023-01-05T05:24:34.480Z,10.80
2023-01-05T05:26:54.388Z,11.23
2023-01-05T05:29:13.862Z,11.75
2023-01-05T05:31:33.717Z,12.70
2023-01-05T05:33:53.731Z,9.88
2023-01-05T05:36:13.842Z,10.60
2023-01-05T05:38:33.835Z,13.63
2023-01-05T05:40:53.948Z,10.05
2023-01-05T05:43:13.617Z,9.32
2023-01-05T05:45:33.204Z,9.90
2023-01-05T05:47:52.894Z,10.93
2023-01-05T05:50:12.880Z,15.93
2023-01-05T05:52:32.564Z,12.25
2023-01-05T05:54:52.581Z,12.45
2023-01-05T05:57:12.099Z,12.63
2023-01-05T05:59:31.766Z,11.38
2023-01-05T06:01:52.000Z,12.73
2023-01-05T06:04:12.000Z,12.10
2023-01-05T06:06:32.056Z,13.07
2023-01-05T06:08:52.012Z,13.18
2023-01-05T06:11:11.844Z,15.10
2023-01-05T06:13:31.954Z,23.38
2023-01-05T06:15:52.343Z,24.67
2023-01-05T06:18:12.122Z,15.05
2023-01-05T06:20:32.447Z,18.65
2023-01-05T06:22:52.147Z,21.73
2023-01-05T06:25:12.217Z,24.92
2023-01-05T06:27:32.554Z,26.08
2023-01-05T06:29:52.611Z,25.30
2023-01-05T06:32:12.476Z,25.15
2023-01-05T06:34:32.649Z,29.80
2023-01-05T06:37:01.884Z,20.48
2023-01-05T06:39:22.168Z,17.13
2023-01-05T06:41:41.668Z,13.20
2023-01-05T06:44:01.421Z,19.58
2023-01-05T06:46:21.656Z,23.23
2023-01-05T06:48:41.372Z,21.77
2023-01-05T06:51:00.961Z,17.35
2023-01-05T06:53:20.673Z,15.57
2023-01-05T06:55:40.922Z,15.18
2023-01-05T06:58:01.407Z,14.30
2023-01-05T07:00:22.798Z,14.50
2023-01-05T07:02:42.672Z,13.00
2023-01-05T07:05:02.850Z,17.92
2023-01-05T07:07:23.114Z,13.85
2023-01-05T07:09:48.457Z,14.30
2023-01-05T07:12:08.513Z,13.30
2023-01-05T07:14:28.669Z,18.10
2023-01-05T07:16:48.308Z,18.10
2023-01-05T07:19:09.506Z,20.25
2023-01-05T07:21:29.389Z,15.43
2023-01-05T07:23:49.144Z,12.35
2023-01-05T07:26:10.134Z,9.75
2023-01-05T07:28:30.046Z,10.70
2023-01-05T07:30:53.260Z,11.90
2023-01-05T07:33:13.452Z,13.23
2023-01-05T07:35:33.542Z,14.10
2023-01-05T07:37:55.885Z,11.68
2023-01-05T07:40:15.995Z,12.97
2023-01-05T07:42:36.371Z,12.30
2023-01-05T07:44:56.141Z,10.75
2023-01-05T07:47:16.160Z,11.38
2023-01-05T07:49:36.042Z,11.48
2023-01-05T07:51:56.180Z,23.52
2023-01-05T07:54:15.908Z,14.15
2023-01-05T07:56:36.060Z,20.50
2023-01-05T07:58:56.190Z,27.38
2023-01-05T08:01:17.714Z,68.22
2023-01-05T08:03:38.465Z,17.30
2023-01-05T08:06:02.789Z,12.57
2023-01-05T08:08:24.674Z,14.80
2023-01-05T08:10:44.468Z,14.07
2023-01-05T08:13:23.567Z,15.13
2023-01-05T08:15:47.518Z,21.25
2023-01-05T08:18:10.954Z,21.92
2023-01-05T08:20:30.589Z,15.13
2023-01-05T08:22:54.239Z,17.77
2023-01-05T08:25:13.961Z,14.60
2023-01-05T08:27:34.456Z,24.80
2023-01-05T08:29:54.349Z,75.57
2023-01-05T08:32:14.567Z,36.53
2023-01-05T08:34:35.170Z,23.15
2023-01-05T08:36:55.208Z,20.25
2023-01-05T08:39:14.907Z,34.30
2023-01-05T08:41:36.861Z,44.15
2023-01-05T08:43:59.185Z,25.30
2023-01-05T08:46:20.775Z,27.20
2023-01-05T08:48:40.963Z,18.50
2023-01-05T08:51:06.590Z,15.52
2023-01-05T08:53:26.407Z,17.33
2023-01-05T08:55:46.097Z,20.40
2023-01-05T08:58:06.316Z,15.93
2023-01-05T09:00:26.601Z,17.45
2023-01-05T09:02:46.851Z,16.08
2023-01-05T09:05:07.639Z,22.98
2023-01-05T09:07:27.916Z,19.77
2023-01-05T09:09:47.912Z,18.95
2023-01-05T09:12:08.300Z,13.57
2023-01-05T09:14:28.523Z,14.75
2023-01-05T09:19:28.577Z,12.75
2023-01-05T09:21:48.670Z,12.10
2023-01-05T09:24:13.790Z,16.17
2023-01-05T09:26:33.959Z,14.68
2023-01-05T09:28:54.469Z,12.32
2023-01-05T09:31:19.890Z,12.02
2023-01-05T09:33:40.706Z,13.38
2023-01-05T09:36:00.281Z,15.07
2023-01-05T09:38:20.037Z,15.68
2023-01-05T09:40:43.360Z,14.05
2023-01-05T09:43:03.350Z,16.80
2023-01-05T09:45:26.274Z,20.92
2023-01-05T09:47:47.018Z,14.73
2023-01-05T09:50:16.416Z,16.25
2023-01-05T09:52:38.403Z,16.30
2023-01-05T09:54:58.853Z,16.70
2023-01-05T09:57:25.983Z,16.40
2023-01-05T09:59:52.011Z,17.05
2023-01-05T10:02:33.252Z,16.42
2023-01-05T10:04:54.841Z,18.65
2023-01-05T10:07:40.216Z,16.48
2023-01-05T10:10:10.779Z,15.77
2023-01-05T10:13:02.693Z,18.92
2023-01-05T10:15:22.615Z,24.80
2023-01-05T10:17:44.506Z,18.40
2023-01-05T10:20:18.291Z,18.20
2023-01-05T10:22:49.367Z,18.25
2023-01-05T10:25:50.609Z,21.90
2023-01-05T10:28:41.754Z,18.58
2023-01-05T10:31:08.855Z,13.88
2023-01-05T10:33:58.022Z,17.05
2023-01-05T10:39:48.504Z,17.58
2023-01-05T10:42:18.778Z,18.48
2023-01-05T10:44:58.557Z,18.95
2023-01-05T10:47:20.385Z,21.13
2023-01-05T10:49:44.545Z,21.15
2023-01-05T10:52:11.118Z,21.58
2023-01-05T10:54:42.747Z,21.17
2023-01-05T10:57:33.678Z,18.98
2023-01-05T10:59:56.314Z,16.88
2023-01-05T11:02:16.114Z,16.02
2023-01-05T11:04:36.455Z,15.68
2023-01-05T11:07:06.607Z,14.85
2023-01-05T11:09:26.632Z,14.48
2023-01-05T11:11:58.619Z,15.57
2023-01-05T11:14:20.296Z,14.82
2023-01-05T11:16:52.354Z,16.25
2023-01-05T11:19:16.375Z,18.95
2023-01-05T11:21:37.221Z,16.90
2023-01-05T11:23:58.706Z,17.65
2023-01-05T11:26:18.549Z,15.60
2023-01-05T11:28:41.314Z,14.88
2023-01-05T11:31:06.121Z,15.40
2023-01-05T11:33:28.487Z,15.00
2023-01-05T11:35:49.578Z,14.20
2023-01-05T11:38:37.723Z,14.07
2023-01-05T11:40:59.626Z,13.93
2023-01-05T11:43:21.043Z,13.23
2023-01-05T11:45:48.603Z,12.95
2023-01-05T11:48:15.021Z,13.50
2023-01-05T11:50:55.847Z,11.38
2023-01-05T11:53:31.265Z,11.20
2023-01-05T11:56:09.749Z,12.18
2023-01-05T11:58:34.254Z,9.95
2023-01-05T12:01:00.287Z,9.50
2023-01-05T12:03:47.120Z,10.88
2023-01-05T12:06:46.135Z,9.77
2023-01-05T12:09:34.086Z,8.52
2023-01-05T12:11:54.772Z,9.88
2023-01-05T12:14:41.032Z,10.25
2023-01-05T12:17:12.127Z,9.52
2023-01-05T12:19:57.922Z,10.00
2023-01-05T12:22:36.211Z,9.75
2023-01-05T12:25:24.279Z,9.98
2023-01-05T12:28:29.342Z,11.02
2023-01-05T12:34:12.699Z,9.00
2023-01-05T12:36:56.966Z,8.80
2023-01-05T12:41:54.678Z,8.95
2023-01-05T12:44:47.683Z,8.93
2023-01-05T12:47:38.540Z,7.82
2023-01-05T12:50:22.490Z,9.77
2023-01-05T12:52:47.865Z,10.85
2023-01-05T12:55:25.029Z,9.82
2023-01-05T12:57:56.741Z,10.23
2023-01-05T13:00:20.890Z,9.55
2023-01-05T13:02:54.847Z,10.52
2023-01-05T13:05:41.713Z,11.80
2023-01-05T13:08:17.514Z,10.73
2023-01-05T13:10:56.248Z,10.95
2023-01-05T13:13:24.883Z,9.57
2023-01-05T13:15:50.562Z,10.05
2023-01-05T13:18:15.386Z,11.32
2023-01-05T13:20:41.732Z,10.10
2023-01-05T13:23:13.446Z,8.63
2023-01-05T13:25:42.924Z,8.93
2023-01-05T13:28:02.920Z,10.07
2023-01-05T13:30:28.898Z,9.23
2023-01-05T13:33:04.239Z,10.27
2023-01-05T13:35:24.339Z,8.88
2023-01-05T13:37:43.948Z,9.85
2023-01-05T13:40:41.289Z,9.98
2023-01-05T13:43:13.291Z,8.18
2023-01-05T13:45:52.829Z,9.63
2023-01-05T13:48:45.257Z,9.35
2023-01-05T13:51:45.317Z,8.82
2023-01-05T13:54:13.857Z,8.95
2023-01-05T13:56:38.643Z,8.48
2023-01-05T13:59:09.678Z,8.80
2023-01-05T14:01:44.029Z,9.52
2023-01-05T14:04:14.956Z,9.32
2023-01-05T14:06:37.437Z,8.10
2023-01-05T14:11:28.864Z,9.10
2023-01-05T14:14:07.875Z,9.40
2023-01-05T14:16:34.613Z,8.55
2023-01-05T14:19:20.236Z,9.10
2023-01-05T14:22:00.839Z,7.85
2023-01-05T14:24:26.754Z,9.70
2023-01-05T14:27:04.726Z,9.07
2023-01-05T14:29:46.482Z,10.02
2023-01-05T14:32:07.195Z,9.77
2023-01-05T14:34:28.916Z,8.27
2023-01-05T14:37:01.203Z,9.88
2023-01-05T14:39:41.649Z,9.35
2023-01-05T14:42:15.961Z,9.30
2023-01-05T14:44:43.401Z,9.40
2023-01-05T14:47:04.762Z,8.90
2023-01-05T14:49:27.157Z,10.35
2023-01-05T14:51:58.977Z,10.52
2023-01-05T14:55:00.655Z,9.25
2023-01-05T14:57:30.220Z,10.73
2023-01-05T15:02:21.631Z,11.05
2023-01-05T15:04:41.926Z,10.65
2023-01-05T15:07:04.964Z,10.43
2023-01-05T15:09:43.555Z,10.00
2023-01-05T15:12:13.710Z,10.10
2023-01-05T15:14:45.780Z,12.30
2023-01-05T15:17:11.573Z,10.10
2023-01-05T15:19:34.860Z,11.15
2023-01-05T15:22:37.686Z,11.15
2023-01-05T15:25:13.094Z,12.48
2023-01-05T15:28:08.707Z,12.35
2023-01-05T15:30:43.165Z,13.35
2023-01-05T15:33:13.715Z,15.40
2023-01-05T15:35:40.305Z,13.65
2023-01-05T15:38:20.122Z,14.05
2023-01-05T15:40:40.497Z,14.50
2023-01-05T15:43:03.250Z,13.05
2023-01-05T15:45:35.113Z,18.95
2023-01-05T15:47:59.803Z,15.43
2023-01-05T15:50:45.330Z,16.05
2023-01-05T15:53:05.766Z,15.90
2023-01-05T15:55:27.757Z,14.80
2023-01-05T15:57:55.305Z,18.00
2023-01-05T16:00:18.118Z,15.63
2023-01-05T16:02:38.204Z,16.42
2023-01-05T16:05:15.182Z,15.52
2023-01-05T16:07:39.862Z,16.15
2023-01-05T16:09:59.539Z,16.70
2023-01-05T16:12:25.809Z,16.42
2023-01-05T16:14:46.528Z,18.08
2023-01-05T16:17:21.371Z,34.67
2023-01-05T16:19:51.510Z,32.13
2023-01-05T16:22:39.099Z,22.63
2023-01-05T16:25:34.092Z,18.10
2023-01-05T16:28:02.837Z,21.10
2023-01-05T16:30:40.480Z,16.73
2023-01-05T16:33:10.839Z,16.77
2023-01-05T16:35:34.517Z,21.60
2023-01-05T16:38:09.704Z,24.90
2023-01-05T16:40:30.544Z,18.50
2023-01-05T16:42:50.791Z,16.73
2023-01-05T16:45:19.751Z,19.70
2023-01-05T16:47:40.995Z,21.35
2023-01-05T16:50:09.088Z,18.75
2023-01-05T16:52:42.162Z,16.00
2023-01-05T16:55:28.804Z,16.75
2023-01-05T16:57:49.365Z,10.68
2023-01-05T17:00:28.090Z,10.40
2023-01-05T17:02:48.819Z,10.60
2023-01-05T17:05:09.801Z,11.23
2023-01-05T17:07:29.704Z,14.05
2023-01-05T17:09:49.811Z,14.43
2023-01-05T17:12:12.079Z,12.52
2023-01-05T17:14:31.998Z,13.17
2023-01-05T17:16:53.617Z,16.95
2023-01-05T17:19:15.725Z,18.27
2023-01-05T17:23:58.392Z,24.42
2023-01-05T17:26:28.859Z,23.02
2023-01-05T17:28:50.474Z,20.38
2023-01-05T17:31:09.974Z,24.00
2023-01-05T17:33:30.009Z,28.15
2023-01-05T17:35:50.270Z,30.33
2023-01-05T17:38:11.842Z,29.67
2023-01-05T17:40:31.999Z,24.50
2023-01-05T17:42:52.203Z,35.55
2023-01-05T17:45:15.282Z,23.02
2023-01-05T17:49:54.904Z,35.85
2023-01-05T17:52:15.010Z,41.45
2023-01-05T17:54:35.101Z,32.45
2023-01-05T17:56:55.089Z,43.35
2023-01-05T17:59:14.702Z,38.35
2023-01-05T18:01:34.540Z,35.75
2023-01-05T18:03:54.460Z,49.92
2023-01-05T18:06:15.125Z,62.22
2023-01-05T18:08:36.240Z,67.80
2023-01-05T18:10:56.607Z,59.70
2023-01-05T18:13:19.705Z,31.17
2023-01-05T18:15:44.395Z,30.73
2023-01-05T18:18:04.580Z,27.17
2023-01-05T18:20:27.394Z,20.00
2023-01-05T18:22:47.228Z,14.57
2023-01-05T18:25:08.068Z,16.70
2023-01-05T18:27:27.922Z,19.13
2023-01-05T18:29:48.061Z,26.90
2023-01-05T18:32:09.103Z,23.52
2023-01-05T18:34:29.171Z,17.83
2023-01-05T18:36:55.603Z,18.35
2023-01-05T18:39:22.991Z,20.90
2023-01-05T18:41:42.942Z,27.38
2023-01-05T18:44:03.164Z,39.63
2023-01-05T18:46:23.221Z,41.92
2023-01-05T18:48:42.866Z,52.97
2023-01-05T18:51:07.362Z,50.13
2023-01-05T18:53:26.924Z,59.90
2023-01-05T18:55:47.165Z,42.40
2023-01-05T18:58:07.265Z,27.92
2023-01-05T19:00:27.850Z,21.95
2023-01-05T19:02:47.951Z,23.05
2023-01-05T19:05:09.459Z,20.73
2023-01-05T19:07:29.219Z,18.60
2023-01-05T19:09:49.268Z,20.55
2023-01-05T19:12:08.975Z,23.65
2023-01-05T19:14:29.334Z,37.78
2023-01-05T19:16:49.272Z,29.02
2023-01-05T19:19:14.325Z,47.70
2023-01-05T19:21:36.761Z,57.47
2023-01-05T19:23:59.931Z,62.25
2023-01-05T19:28:39.915Z,52.05
2023-01-05T19:31:03.833Z,47.17
2023-01-05T19:33:24.014Z,54.78
2023-01-05T19:35:43.869Z,56.30
2023-01-05T19:38:04.194Z,48.25
2023-01-05T19:40:24.507Z,35.65
2023-01-05T19:42:44.877Z,50.88
2023-01-05T19:45:04.898Z,51.50
2023-01-05T19:47:24.980Z,57.30
2023-01-05T19:49:44.535Z,49.80
2023-01-05T19:52:04.224Z,34.83
2023-01-05T19:54:25.491Z,45.78
2023-01-05T19:56:45.554Z,44.20
2023-01-05T19:59:09.585Z,39.83
2023-01-05T20:01:33.249Z,37.25
2023-01-05T20:03:54.089Z,36.63
2023-01-05T20:06:20.189Z,37.88
2023-01-05T20:08:41.086Z,43.30
2023-01-05T20:11:06.017Z,41.28
2023-01-05T20:13:25.842Z,38.00
2023-01-05T20:15:45.734Z,37.20
2023-01-05T20:18:06.930Z,35.00
2023-01-05T20:20:26.796Z,30.65
2023-01-05T20:22:47.001Z,31.85
2023-01-05T20:25:07.809Z,37.45
2023-01-05T20:27:27.791Z,35.33
2023-01-05T20:29:47.671Z,32.20
2023-01-05T20:32:19.928Z,33.67
2023-01-05T20:34:41.072Z,31.73
2023-01-05T20:37:03.426Z,31.70
2023-01-05T20:39:23.168Z,32.42
2023-01-05T20:41:46.807Z,33.83
2023-01-05T20:44:08.211Z,38.15
2023-01-05T20:46:32.474Z,36.38
2023-01-05T20:48:53.377Z,34.78
2023-01-05T20:51:13.911Z,25.83
2023-01-05T20:53:33.903Z,22.38
2023-01-05T20:55:53.872Z,19.30
2023-01-05T20:58:14.019Z,20.38
2023-01-05T21:00:34.205Z,23.73
2023-01-05T21:02:55.339Z,23.40
2023-01-05T21:05:15.855Z,28.70
2023-01-05T21:07:35.639Z,26.02
2023-01-05T21:09:55.317Z,25.23
2023-01-05T21:12:15.342Z,26.83
2023-01-05T21:14:35.131Z,29.10
2023-01-05T21:16:55.367Z,26.98
2023-01-05T21:19:18.133Z,21.52
2023-01-05T21:21:38.275Z,25.30
2023-01-05T21:23:58.077Z,26.75
2023-01-05T21:26:19.185Z,24.60
2023-01-05T21:28:39.233Z,24.58
2023-01-05T21:31:02.900Z,23.98
2023-01-05T21:33:24.566Z,25.02
2023-01-05T21:35:53.067Z,30.17
2023-01-05T21:38:13.052Z,27.08
2023-01-05T21:40:33.456Z,25.73
2023-01-05T21:42:55.548Z,29.02
2023-01-05T21:45:17.351Z,30.70
2023-01-05T21:47:37.415Z,29.20
2023-01-05T21:49:57.207Z,30.17
2023-01-05T21:52:35.896Z,33.92
2023-01-05T21:55:31.054Z,35.30
2023-01-05T21:57:50.829Z,33.25
2023-01-05T22:00:11.326Z,39.50
2023-01-05T22:02:30.976Z,38.30
2023-01-05T22:04:51.009Z,36.95
2023-01-05T22:07:10.791Z,34.67
2023-01-05T22:09:30.223Z,35.63
2023-01-05T22:11:50.320Z,34.83
2023-01-05T22:14:10.537Z,35.13
2023-01-05T22:16:30.494Z,33.25
2023-01-05T22:18:50.862Z,37.22
2023-01-05T22:21:10.941Z,32.22
2023-01-05T22:23:32.184Z,29.13
2023-01-05T22:25:59.605Z,30.13
2023-01-05T22:28:19.679Z,32.50
2023-01-05T22:30:39.749Z,32.83
2023-01-05T22:32:59.869Z,36.15
2023-01-05T22:35:20.120Z,40.22
2023-01-05T22:37:40.114Z,41.83
2023-01-05T22:40:00.056Z,37.53
2023-01-05T22:42:19.698Z,32.78
2023-01-05T22:44:39.364Z,33.33
2023-01-05T22:46:58.884Z,34.40
2023-01-05T22:49:18.541Z,37.35
2023-01-05T22:51:40.530Z,29.67
2023-01-05T22:54:01.146Z,30.45
2023-01-05T22:56:23.001Z,29.55
2023-01-05T22:58:43.080Z,24.85
2023-01-05T23:01:12.395Z,24.65
2023-01-05T23:03:32.523Z,21.98
2023-01-05T23:05:52.977Z,21.95
2023-01-05T23:08:13.705Z,23.88
2023-01-05T23:10:33.976Z,33.38
2023-01-05T23:12:54.252Z,35.45
2023-01-05T23:15:14.468Z,30.08
2023-01-05T23:17:34.182Z,30.13
2023-01-05T23:19:54.272Z,26.52
2023-01-05T23:22:14.657Z,28.33
2023-01-05T23:24:34.710Z,28.25
2023-01-05T23:26:54.567Z,31.45
2023-01-05T23:29:14.602Z,28.92
2023-01-05T23:31:34.684Z,28.55
2023-01-05T23:33:54.542Z,26.83
2023-01-05T23:36:16.219Z,25.98
2023-01-05T23:38:37.070Z,25.63
2023-01-05T23:40:58.257Z,21.08
2023-01-05T23:43:28.825Z,19.70
2023-01-05T23:45:49.338Z,21.88
2023-01-05T23:48:09.854Z,22.58
2023-01-05T23:50:29.739Z,28.88
2023-01-05T23:52:49.872Z,21.52
2023-01-05T23:55:09.663Z,22.33
2023-01-05T23:57:29.953Z,21.58
2023-01-05T23:59:49.940Z,20.88
